sensor_id;sensor_type;location;lat;lon;timestamp;P1;durP1;ratioP1;P2;durP2;ratioP2
16612;SDS011;8419;52.358;9.752;2023-07-31T00:01:35;2.00;;;1.70;;
16612;SDS011;8419;52.358;9.752;2023-07-31T00:04:21;2.95;;;1.77;;
16612;SDS011;8419;52.358;9.752;2023-07-31T00:07:07;2.97;;;1.42;;
16612;SDS011;8419;52.358;9.752;2023-07-31T00:09:52;1.92;;;1.37;;
16612;SDS011;8419;52.358;9.752;2023-07-31T00:12:38;2.55;;;1.40;;
16612;SDS011;8419;52.358;9.752;2023-07-31T00:15:23;2.97;;;0.98;;
16612;SDS011;8419;52.358;9.752;2023-07-31T00:18:09;1.45;;;1.30;;
16612;SDS011;8419;52.358;9.752;2023-07-31T00:20:55;2.20;;;1.50;;
16612;SDS011;8419;52.358;9.752;2023-07-31T00:23:40;2.60;;;1.10;;
16612;SDS011;8419;52.358;9.752;2023-07-31T00:26:26;2.30;;;1.40;;
16612;SDS011;8419;52.358;9.752;2023-07-31T00:29:11;2.03;;;1.40;;
16612;SDS011;8419;52.358;9.752;2023-07-31T00:31:57;2.55;;;1.65;;
16612;SDS011;8419;52.358;9.752;2023-07-31T00:34:43;3.83;;;1.45;;
16612;SDS011;8419;52.358;9.752;2023-07-31T00:37:29;2.50;;;1.25;;
16612;SDS011;8419;52.358;9.752;2023-07-31T00:40:15;1.67;;;1.12;;
16612;SDS011;8419;52.358;9.752;2023-07-31T00:43:01;2.12;;;1.20;;
16612;SDS011;8419;52.358;9.752;2023-07-31T00:45:47;4.55;;;1.30;;
16612;SDS011;8419;52.358;9.752;2023-07-31T00:48:33;2.17;;;1.12;;
16612;SDS011;8419;52.358;9.752;2023-07-31T00:51:19;3.62;;;1.48;;
16612;SDS011;8419;52.358;9.752;2023-07-31T00:54:05;2.20;;;1.40;;
16612;SDS011;8419;52.358;9.752;2023-07-31T00:56:51;2.03;;;1.17;;
16612;SDS011;8419;52.358;9.752;2023-07-31T00:59:38;1.35;;;1.17;;
16612;SDS011;8419;52.358;9.752;2023-07-31T01:02:24;3.75;;;1.40;;
16612;SDS011;8419;52.358;9.752;2023-07-31T01:05:09;1.35;;;0.98;;
16612;SDS011;8419;52.358;9.752;2023-07-31T01:07:56;5.05;;;1.55;;
16612;SDS011;8419;52.358;9.752;2023-07-31T01:10:50;3.10;;;1.08;;
16612;SDS011;8419;52.358;9.752;2023-07-31T01:13:39;4.60;;;1.35;;
16612;SDS011;8419;52.358;9.752;2023-07-31T01:16:25;2.47;;;0.90;;
16612;SDS011;8419;52.358;9.752;2023-07-31T01:19:11;1.70;;;1.17;;
16612;SDS011;8419;52.358;9.752;2023-07-31T01:22:09;3.25;;;1.17;;
16612;SDS011;8419;52.358;9.752;2023-07-31T01:25:12;3.28;;;1.12;;
16612;SDS011;8419;52.358;9.752;2023-07-31T01:28:08;1.40;;;1.00;;
16612;SDS011;8419;52.358;9.752;2023-07-31T01:30:57;2.50;;;1.00;;
16612;SDS011;8419;52.358;9.752;2023-07-31T01:33:44;2.62;;;1.17;;
16612;SDS011;8419;52.358;9.752;2023-07-31T01:36:31;2.25;;;1.17;;
16612;SDS011;8419;52.358;9.752;2023-07-31T01:39:19;3.90;;;1.25;;
16612;SDS011;8419;52.358;9.752;2023-07-31T01:42:06;1.25;;;0.80;;
16612;SDS011;8419;52.358;9.752;2023-07-31T01:44:52;4.15;;;1.40;;
16612;SDS011;8419;52.358;9.752;2023-07-31T01:47:38;2.40;;;1.05;;
16612;SDS011;8419;52.358;9.752;2023-07-31T01:50:23;2.65;;;1.00;;
16612;SDS011;8419;52.358;9.752;2023-07-31T01:53:09;2.20;;;1.05;;
16612;SDS011;8419;52.358;9.752;2023-07-31T01:55:56;1.20;;;0.85;;
16612;SDS011;8419;52.358;9.752;2023-07-31T01:58:42;2.12;;;0.90;;
16612;SDS011;8419;52.358;9.752;2023-07-31T02:01:27;2.12;;;1.00;;
16612;SDS011;8419;52.358;9.752;2023-07-31T02:04:13;2.28;;;0.90;;
16612;SDS011;8419;52.358;9.752;2023-07-31T02:06:58;3.42;;;1.10;;
16612;SDS011;8419;52.358;9.752;2023-07-31T02:09:43;1.08;;;1.00;;
16612;SDS011;8419;52.358;9.752;2023-07-31T02:12:31;1.75;;;1.08;;
16612;SDS011;8419;52.358;9.752;2023-07-31T02:15:17;4.50;;;0.90;;
16612;SDS011;8419;52.358;9.752;2023-07-31T02:18:03;1.05;;;0.95;;
16612;SDS011;8419;52.358;9.752;2023-07-31T02:20:49;1.42;;;0.77;;
16612;SDS011;8419;52.358;9.752;2023-07-31T02:23:35;1.85;;;0.95;;
16612;SDS011;8419;52.358;9.752;2023-07-31T02:26:21;1.33;;;0.88;;
16612;SDS011;8419;52.358;9.752;2023-07-31T02:29:07;0.85;;;0.60;;
16612;SDS011;8419;52.358;9.752;2023-07-31T02:31:53;1.02;;;0.52;;
16612;SDS011;8419;52.358;9.752;2023-07-31T02:34:40;1.85;;;0.98;;
16612;SDS011;8419;52.358;9.752;2023-07-31T02:37:25;1.20;;;0.70;;
16612;SDS011;8419;52.358;9.752;2023-07-31T02:40:13;1.35;;;0.80;;
16612;SDS011;8419;52.358;9.752;2023-07-31T02:42:58;3.50;;;0.60;;
16612;SDS011;8419;52.358;9.752;2023-07-31T02:45:45;1.42;;;0.80;;
16612;SDS011;8419;52.358;9.752;2023-07-31T02:48:35;1.23;;;0.60;;
16612;SDS011;8419;52.358;9.752;2023-07-31T02:51:20;0.60;;;0.60;;
16612;SDS011;8419;52.358;9.752;2023-07-31T02:54:06;0.77;;;0.57;;
16612;SDS011;8419;52.358;9.752;2023-07-31T02:56:52;3.42;;;0.60;;
16612;SDS011;8419;52.358;9.752;2023-07-31T02:59:38;1.35;;;0.90;;
16612;SDS011;8419;52.358;9.752;2023-07-31T03:02:23;1.10;;;0.73;;
16612;SDS011;8419;52.358;9.752;2023-07-31T03:05:09;1.10;;;0.68;;
16612;SDS011;8419;52.358;9.752;2023-07-31T03:07:54;1.10;;;0.80;;
16612;SDS011;8419;52.358;9.752;2023-07-31T03:10:40;0.52;;;0.52;;
16612;SDS011;8419;52.358;9.752;2023-07-31T03:13:26;1.85;;;0.68;;
16612;SDS011;8419;52.358;9.752;2023-07-31T03:16:11;0.73;;;0.73;;
16612;SDS011;8419;52.358;9.752;2023-07-31T03:18:57;0.60;;;0.60;;
16612;SDS011;8419;52.358;9.752;2023-07-31T03:21:43;0.82;;;0.62;;
16612;SDS011;8419;52.358;9.752;2023-07-31T03:24:28;0.88;;;0.68;;
16612;SDS011;8419;52.358;9.752;2023-07-31T03:27:14;1.60;;;0.62;;
16612;SDS011;8419;52.358;9.752;2023-07-31T03:30:00;0.80;;;0.80;;
16612;SDS011;8419;52.358;9.752;2023-07-31T03:32:47;1.40;;;0.70;;
16612;SDS011;8419;52.358;9.752;2023-07-31T03:35:32;2.85;;;0.60;;
16612;SDS011;8419;52.358;9.752;2023-07-31T03:38:18;0.90;;;0.70;;
16612;SDS011;8419;52.358;9.752;2023-07-31T03:41:04;1.55;;;0.80;;
16612;SDS011;8419;52.358;9.752;2023-07-31T03:43:50;1.15;;;0.70;;
16612;SDS011;8419;52.358;9.752;2023-07-31T03:46:36;2.20;;;0.75;;
16612;SDS011;8419;52.358;9.752;2023-07-31T03:49:22;1.45;;;0.80;;
16612;SDS011;8419;52.358;9.752;2023-07-31T03:52:08;1.30;;;1.02;;
16612;SDS011;8419;52.358;9.752;2023-07-31T03:54:53;1.17;;;0.80;;
16612;SDS011;8419;52.358;9.752;2023-07-31T03:57:41;1.42;;;0.70;;
16612;SDS011;8419;52.358;9.752;2023-07-31T04:00:26;1.77;;;0.98;;
16612;SDS011;8419;52.358;9.752;2023-07-31T04:03:12;0.62;;;0.47;;
16612;SDS011;8419;52.358;9.752;2023-07-31T04:05:58;1.80;;;0.75;;
16612;SDS011;8419;52.358;9.752;2023-07-31T04:08:43;2.17;;;1.10;;
16612;SDS011;8419;52.358;9.752;2023-07-31T04:11:29;1.52;;;0.80;;
16612;SDS011;8419;52.358;9.752;2023-07-31T04:14:16;0.75;;;0.70;;
16612;SDS011;8419;52.358;9.752;2023-07-31T04:17:02;2.00;;;0.77;;
16612;SDS011;8419;52.358;9.752;2023-07-31T04:19:48;0.98;;;0.88;;
16612;SDS011;8419;52.358;9.752;2023-07-31T04:22:33;2.75;;;0.80;;
16612;SDS011;8419;52.358;9.752;2023-07-31T04:25:19;1.73;;;0.70;;
16612;SDS011;8419;52.358;9.752;2023-07-31T04:28:05;1.10;;;0.77;;
16612;SDS011;8419;52.358;9.752;2023-07-31T04:30:51;1.00;;;0.75;;
16612;SDS011;8419;52.358;9.752;2023-07-31T04:33:37;3.65;;;1.33;;
16612;SDS011;8419;52.358;9.752;2023-07-31T04:36:23;0.80;;;0.80;;
16612;SDS011;8419;52.358;9.752;2023-07-31T04:39:08;1.48;;;0.90;;
16612;SDS011;8419;52.358;9.752;2023-07-31T04:41:55;1.48;;;0.90;;
16612;SDS011;8419;52.358;9.752;2023-07-31T04:44:40;1.25;;;1.02;;
16612;SDS011;8419;52.358;9.752;2023-07-31T04:47:26;3.00;;;1.08;;
16612;SDS011;8419;52.358;9.752;2023-07-31T04:50:11;1.85;;;1.00;;
16612;SDS011;8419;52.358;9.752;2023-07-31T04:52:57;1.40;;;1.00;;
16612;SDS011;8419;52.358;9.752;2023-07-31T04:55:43;1.42;;;0.73;;
16612;SDS011;8419;52.358;9.752;2023-07-31T04:58:28;1.65;;;0.70;;
16612;SDS011;8419;52.358;9.752;2023-07-31T05:01:15;0.82;;;0.60;;
16612;SDS011;8419;52.358;9.752;2023-07-31T05:04:00;2.15;;;0.70;;
16612;SDS011;8419;52.358;9.752;2023-07-31T05:06:46;1.60;;;0.60;;
16612;SDS011;8419;52.358;9.752;2023-07-31T05:09:32;1.27;;;0.57;;
16612;SDS011;8419;52.358;9.752;2023-07-31T05:12:17;2.87;;;0.60;;
16612;SDS011;8419;52.358;9.752;2023-07-31T05:15:04;0.52;;;0.40;;
16612;SDS011;8419;52.358;9.752;2023-07-31T05:17:51;0.82;;;0.60;;
16612;SDS011;8419;52.358;9.752;2023-07-31T05:20:37;0.73;;;0.70;;
16612;SDS011;8419;52.358;9.752;2023-07-31T05:23:23;0.82;;;0.50;;
16612;SDS011;8419;52.358;9.752;2023-07-31T05:26:08;1.02;;;0.60;;
16612;SDS011;8419;52.358;9.752;2023-07-31T05:28:54;0.60;;;0.52;;
16612;SDS011;8419;52.358;9.752;2023-07-31T05:31:40;0.60;;;0.60;;
16612;SDS011;8419;52.358;9.752;2023-07-31T05:34:25;0.85;;;0.70;;
16612;SDS011;8419;52.358;9.752;2023-07-31T05:37:11;2.37;;;0.95;;
16612;SDS011;8419;52.358;9.752;2023-07-31T05:39:56;1.15;;;1.00;;
16612;SDS011;8419;52.358;9.752;2023-07-31T05:42:42;1.60;;;1.33;;
16612;SDS011;8419;52.358;9.752;2023-07-31T05:45:27;1.92;;;1.70;;
16612;SDS011;8419;52.358;9.752;2023-07-31T05:48:13;3.55;;;2.03;;
16612;SDS011;8419;52.358;9.752;2023-07-31T05:50:59;3.40;;;2.00;;
16612;SDS011;8419;52.358;9.752;2023-07-31T05:53:44;3.10;;;2.80;;
16612;SDS011;8419;52.358;9.752;2023-07-31T05:56:30;3.40;;;2.22;;
16612;SDS011;8419;52.358;9.752;2023-07-31T05:59:18;4.22;;;2.87;;
16612;SDS011;8419;52.358;9.752;2023-07-31T06:02:04;3.80;;;2.20;;
16612;SDS011;8419;52.358;9.752;2023-07-31T06:04:50;5.70;;;3.17;;
16612;SDS011;8419;52.358;9.752;2023-07-31T06:07:36;4.95;;;3.00;;
16612;SDS011;8419;52.358;9.752;2023-07-31T06:10:21;6.25;;;3.37;;
16612;SDS011;8419;52.358;9.752;2023-07-31T06:13:07;5.57;;;3.95;;
16612;SDS011;8419;52.358;9.752;2023-07-31T06:15:53;5.57;;;2.70;;
16612;SDS011;8419;52.358;9.752;2023-07-31T06:18:38;5.80;;;3.90;;
16612;SDS011;8419;52.358;9.752;2023-07-31T06:21:24;5.57;;;4.03;;
16612;SDS011;8419;52.358;9.752;2023-07-31T06:24:10;5.65;;;4.32;;
16612;SDS011;8419;52.358;9.752;2023-07-31T06:26:56;7.60;;;4.72;;
16612;SDS011;8419;52.358;9.752;2023-07-31T06:29:42;7.15;;;4.40;;
16612;SDS011;8419;52.358;9.752;2023-07-31T06:32:28;8.50;;;4.22;;
16612;SDS011;8419;52.358;9.752;2023-07-31T06:35:15;6.57;;;4.50;;
16612;SDS011;8419;52.358;9.752;2023-07-31T06:38:01;6.05;;;3.50;;
16612;SDS011;8419;52.358;9.752;2023-07-31T06:40:46;7.40;;;4.40;;
16612;SDS011;8419;52.358;9.752;2023-07-31T06:43:33;6.20;;;4.53;;
16612;SDS011;8419;52.358;9.752;2023-07-31T06:46:18;5.20;;;3.30;;
16612;SDS011;8419;52.358;9.752;2023-07-31T06:49:04;7.40;;;4.00;;
16612;SDS011;8419;52.358;9.752;2023-07-31T06:51:50;7.93;;;4.28;;
16612;SDS011;8419;52.358;9.752;2023-07-31T06:54:35;6.62;;;4.90;;
16612;SDS011;8419;52.358;9.752;2023-07-31T06:57:21;4.68;;;3.72;;
16612;SDS011;8419;52.358;9.752;2023-07-31T07:00:08;5.10;;;4.10;;
16612;SDS011;8419;52.358;9.752;2023-07-31T07:02:54;8.75;;;3.42;;
16612;SDS011;8419;52.358;9.752;2023-07-31T07:05:40;8.55;;;3.78;;
16612;SDS011;8419;52.358;9.752;2023-07-31T07:08:26;9.85;;;5.50;;
16612;SDS011;8419;52.358;9.752;2023-07-31T07:11:11;10.00;;;6.05;;
16612;SDS011;8419;52.358;9.752;2023-07-31T07:13:57;11.43;;;6.97;;
16612;SDS011;8419;52.358;9.752;2023-07-31T07:16:43;11.38;;;6.30;;
16612;SDS011;8419;52.358;9.752;2023-07-31T07:19:28;10.32;;;6.62;;
16612;SDS011;8419;52.358;9.752;2023-07-31T07:22:14;8.88;;;6.85;;
16612;SDS011;8419;52.358;9.752;2023-07-31T07:25:01;11.52;;;7.47;;
16612;SDS011;8419;52.358;9.752;2023-07-31T07:27:47;8.10;;;5.87;;
16612;SDS011;8419;52.358;9.752;2023-07-31T07:30:32;10.48;;;6.85;;
16612;SDS011;8419;52.358;9.752;2023-07-31T07:33:18;12.07;;;7.62;;
16612;SDS011;8419;52.358;9.752;2023-07-31T07:36:04;12.18;;;7.80;;
16612;SDS011;8419;52.358;9.752;2023-07-31T07:38:53;13.88;;;6.45;;
16612;SDS011;8419;52.358;9.752;2023-07-31T07:41:39;8.73;;;6.50;;
16612;SDS011;8419;52.358;9.752;2023-07-31T07:44:25;12.88;;;6.37;;
16612;SDS011;8419;52.358;9.752;2023-07-31T07:47:12;12.77;;;7.12;;
16612;SDS011;8419;52.358;9.752;2023-07-31T07:49:58;13.52;;;7.97;;
16612;SDS011;8419;52.358;9.752;2023-07-31T07:52:44;15.07;;;7.82;;
16612;SDS011;8419;52.358;9.752;2023-07-31T07:55:30;11.52;;;7.18;;
16612;SDS011;8419;52.358;9.752;2023-07-31T07:58:16;11.43;;;6.28;;
16612;SDS011;8419;52.358;9.752;2023-07-31T08:01:01;12.73;;;6.68;;
16612;SDS011;8419;52.358;9.752;2023-07-31T08:03:47;11.55;;;6.62;;
16612;SDS011;8419;52.358;9.752;2023-07-31T08:06:32;9.57;;;5.87;;
16612;SDS011;8419;52.358;9.752;2023-07-31T08:09:18;12.50;;;6.18;;
16612;SDS011;8419;52.358;9.752;2023-07-31T08:12:04;8.80;;;5.93;;
16612;SDS011;8419;52.358;9.752;2023-07-31T08:14:52;8.65;;;5.62;;
16612;SDS011;8419;52.358;9.752;2023-07-31T08:17:37;5.65;;;4.20;;
16612;SDS011;8419;52.358;9.752;2023-07-31T08:20:23;5.75;;;4.12;;
16612;SDS011;8419;52.358;9.752;2023-07-31T08:23:08;6.65;;;4.15;;
16612;SDS011;8419;52.358;9.752;2023-07-31T08:25:54;7.65;;;4.70;;
16612;SDS011;8419;52.358;9.752;2023-07-31T08:28:40;7.03;;;4.20;;
16612;SDS011;8419;52.358;9.752;2023-07-31T08:31:26;12.82;;;3.70;;
16612;SDS011;8419;52.358;9.752;2023-07-31T08:34:13;6.50;;;3.78;;
16612;SDS011;8419;52.358;9.752;2023-07-31T08:36:59;7.60;;;4.45;;
16612;SDS011;8419;52.358;9.752;2023-07-31T08:39:45;7.78;;;3.72;;
16612;SDS011;8419;52.358;9.752;2023-07-31T08:42:30;8.40;;;3.85;;
16612;SDS011;8419;52.358;9.752;2023-07-31T08:45:16;7.07;;;3.50;;
16612;SDS011;8419;52.358;9.752;2023-07-31T08:48:04;5.90;;;3.67;;
16612;SDS011;8419;52.358;9.752;2023-07-31T08:50:49;10.70;;;4.40;;
16612;SDS011;8419;52.358;9.752;2023-07-31T08:53:36;5.78;;;3.87;;
16612;SDS011;8419;52.358;9.752;2023-07-31T08:56:23;7.37;;;4.15;;
16612;SDS011;8419;52.358;9.752;2023-07-31T08:59:10;5.90;;;3.78;;
16612;SDS011;8419;52.358;9.752;2023-07-31T09:01:59;8.00;;;3.90;;
16612;SDS011;8419;52.358;9.752;2023-07-31T09:04:50;5.25;;;3.78;;
16612;SDS011;8419;52.358;9.752;2023-07-31T09:07:35;7.60;;;3.58;;
16612;SDS011;8419;52.358;9.752;2023-07-31T09:10:21;9.63;;;3.50;;
16612;SDS011;8419;52.358;9.752;2023-07-31T09:13:07;8.88;;;4.07;;
16612;SDS011;8419;52.358;9.752;2023-07-31T09:15:54;7.60;;;3.72;;
16612;SDS011;8419;52.358;9.752;2023-07-31T09:18:53;5.47;;;3.72;;
16612;SDS011;8419;52.358;9.752;2023-07-31T09:21:45;4.45;;;3.35;;
16612;SDS011;8419;52.358;9.752;2023-07-31T09:24:33;6.50;;;3.28;;
16612;SDS011;8419;52.358;9.752;2023-07-31T09:27:20;4.15;;;3.12;;
16612;SDS011;8419;52.358;9.752;2023-07-31T09:30:06;6.37;;;3.37;;
16612;SDS011;8419;52.358;9.752;2023-07-31T09:33:02;4.93;;;3.10;;
16612;SDS011;8419;52.358;9.752;2023-07-31T09:35:50;4.30;;;2.95;;
16612;SDS011;8419;52.358;9.752;2023-07-31T09:38:36;3.95;;;3.12;;
16612;SDS011;8419;52.358;9.752;2023-07-31T09:41:21;3.87;;;2.45;;
16612;SDS011;8419;52.358;9.752;2023-07-31T09:44:07;10.32;;;3.03;;
16612;SDS011;8419;52.358;9.752;2023-07-31T09:46:53;2.60;;;2.30;;
16612;SDS011;8419;52.358;9.752;2023-07-31T09:49:39;3.17;;;1.83;;
16612;SDS011;8419;52.358;9.752;2023-07-31T09:52:30;1.92;;;1.65;;
16612;SDS011;8419;52.358;9.752;2023-07-31T09:55:16;2.55;;;1.50;;
16612;SDS011;8419;52.358;9.752;2023-07-31T09:58:04;2.70;;;1.70;;
16612;SDS011;8419;52.358;9.752;2023-07-31T10:00:50;1.55;;;1.30;;
16612;SDS011;8419;52.358;9.752;2023-07-31T10:03:36;3.00;;;1.40;;
16612;SDS011;8419;52.358;9.752;2023-07-31T10:06:23;3.17;;;1.60;;
16612;SDS011;8419;52.358;9.752;2023-07-31T10:09:10;2.42;;;1.15;;
16612;SDS011;8419;52.358;9.752;2023-07-31T10:12:00;2.50;;;1.60;;
16612;SDS011;8419;52.358;9.752;2023-07-31T10:14:54;1.50;;;1.30;;
16612;SDS011;8419;52.358;9.752;2023-07-31T10:17:40;3.33;;;1.50;;
16612;SDS011;8419;52.358;9.752;2023-07-31T10:20:26;2.12;;;1.40;;
16612;SDS011;8419;52.358;9.752;2023-07-31T10:23:13;2.55;;;1.23;;
16612;SDS011;8419;52.358;9.752;2023-07-31T10:26:00;2.28;;;1.50;;
16612;SDS011;8419;52.358;9.752;2023-07-31T10:28:46;1.80;;;1.40;;
16612;SDS011;8419;52.358;9.752;2023-07-31T10:31:35;1.90;;;1.35;;
16612;SDS011;8419;52.358;9.752;2023-07-31T10:34:22;1.48;;;1.37;;
16612;SDS011;8419;52.358;9.752;2023-07-31T10:37:20;3.10;;;1.42;;
16612;SDS011;8419;52.358;9.752;2023-07-31T10:40:09;2.20;;;1.50;;
16612;SDS011;8419;52.358;9.752;2023-07-31T10:42:57;1.05;;;0.95;;
16612;SDS011;8419;52.358;9.752;2023-07-31T10:45:42;1.70;;;1.20;;
16612;SDS011;8419;52.358;9.752;2023-07-31T10:48:28;2.20;;;1.33;;
16612;SDS011;8419;52.358;9.752;2023-07-31T10:51:19;1.37;;;1.12;;
16612;SDS011;8419;52.358;9.752;2023-07-31T10:54:10;2.15;;;1.40;;
16612;SDS011;8419;52.358;9.752;2023-07-31T10:56:57;1.60;;;1.40;;
16612;SDS011;8419;52.358;9.752;2023-07-31T10:59:42;2.12;;;1.35;;
16612;SDS011;8419;52.358;9.752;2023-07-31T11:02:28;1.75;;;1.23;;
16612;SDS011;8419;52.358;9.752;2023-07-31T11:05:18;1.65;;;1.52;;
16612;SDS011;8419;52.358;9.752;2023-07-31T11:08:10;4.82;;;1.60;;
16612;SDS011;8419;52.358;9.752;2023-07-31T11:11:06;2.12;;;1.40;;
16612;SDS011;8419;52.358;9.752;2023-07-31T11:13:53;2.85;;;1.40;;
16612;SDS011;8419;52.358;9.752;2023-07-31T11:16:39;1.80;;;1.35;;
16612;SDS011;8419;52.358;9.752;2023-07-31T11:19:26;1.62;;;1.20;;
16612;SDS011;8419;52.358;9.752;2023-07-31T11:22:12;1.67;;;1.30;;
16612;SDS011;8419;52.358;9.752;2023-07-31T11:24:59;1.83;;;1.20;;
16612;SDS011;8419;52.358;9.752;2023-07-31T11:27:45;2.53;;;1.73;;
16612;SDS011;8419;52.358;9.752;2023-07-31T11:30:31;1.05;;;0.75;;
16612;SDS011;8419;52.358;9.752;2023-07-31T11:33:17;2.30;;;1.48;;
16612;SDS011;8419;52.358;9.752;2023-07-31T11:36:03;2.72;;;1.42;;
16612;SDS011;8419;52.358;9.752;2023-07-31T11:38:49;2.58;;;1.80;;
16612;SDS011;8419;52.358;9.752;2023-07-31T11:41:35;2.25;;;1.33;;
16612;SDS011;8419;52.358;9.752;2023-07-31T11:44:21;2.75;;;1.37;;
16612;SDS011;8419;52.358;9.752;2023-07-31T11:47:07;1.95;;;1.62;;
16612;SDS011;8419;52.358;9.752;2023-07-31T11:49:53;1.23;;;1.12;;
16612;SDS011;8419;52.358;9.752;2023-07-31T11:52:41;3.20;;;1.70;;
16612;SDS011;8419;52.358;9.752;2023-07-31T11:55:30;3.72;;;1.77;;
16612;SDS011;8419;52.358;9.752;2023-07-31T11:58:16;2.25;;;1.30;;
16612;SDS011;8419;52.358;9.752;2023-07-31T12:01:04;2.90;;;1.20;;
16612;SDS011;8419;52.358;9.752;2023-07-31T12:03:51;2.37;;;1.20;;
16612;SDS011;8419;52.358;9.752;2023-07-31T12:06:39;1.10;;;1.00;;
16612;SDS011;8419;52.358;9.752;2023-07-31T12:09:24;1.87;;;1.15;;
16612;SDS011;8419;52.358;9.752;2023-07-31T12:12:10;2.10;;;1.23;;
16612;SDS011;8419;52.358;9.752;2023-07-31T12:15:06;1.30;;;1.17;;
16612;SDS011;8419;52.358;9.752;2023-07-31T12:17:59;2.03;;;1.40;;
16612;SDS011;8419;52.358;9.752;2023-07-31T12:20:45;1.60;;;1.40;;
16612;SDS011;8419;52.358;9.752;2023-07-31T12:23:32;1.48;;;1.25;;
16612;SDS011;8419;52.358;9.752;2023-07-31T12:26:19;1.73;;;1.50;;
16612;SDS011;8419;52.358;9.752;2023-07-31T12:29:05;2.03;;;1.35;;
16612;SDS011;8419;52.358;9.752;2023-07-31T12:31:52;2.28;;;1.10;;
16612;SDS011;8419;52.358;9.752;2023-07-31T12:34:42;2.03;;;0.98;;
16612;SDS011;8419;52.358;9.752;2023-07-31T12:37:29;1.48;;;1.27;;
16612;SDS011;8419;52.358;9.752;2023-07-31T12:40:16;0.80;;;0.80;;
16612;SDS011;8419;52.358;9.752;2023-07-31T12:43:02;1.85;;;1.20;;
16612;SDS011;8419;52.358;9.752;2023-07-31T12:45:49;0.80;;;0.80;;
16612;SDS011;8419;52.358;9.752;2023-07-31T12:48:36;0.70;;;0.70;;
16612;SDS011;8419;52.358;9.752;2023-07-31T12:51:24;0.80;;;0.65;;
16612;SDS011;8419;52.358;9.752;2023-07-31T12:54:09;1.17;;;0.90;;
16612;SDS011;8419;52.358;9.752;2023-07-31T12:56:55;0.82;;;0.65;;
16612;SDS011;8419;52.358;9.752;2023-07-31T12:59:40;0.93;;;0.52;;
16612;SDS011;8419;52.358;9.752;2023-07-31T13:02:25;0.73;;;0.70;;
16612;SDS011;8419;52.358;9.752;2023-07-31T13:05:12;0.95;;;0.55;;
16612;SDS011;8419;52.358;9.752;2023-07-31T13:07:57;0.95;;;0.50;;
16612;SDS011;8419;52.358;9.752;2023-07-31T13:10:43;0.55;;;0.47;;
16612;SDS011;8419;52.358;9.752;2023-07-31T13:13:28;0.62;;;0.50;;
16612;SDS011;8419;52.358;9.752;2023-07-31T13:16:14;0.57;;;0.50;;
16612;SDS011;8419;52.358;9.752;2023-07-31T13:19:00;1.27;;;0.60;;
16612;SDS011;8419;52.358;9.752;2023-07-31T13:21:45;0.30;;;0.30;;
16612;SDS011;8419;52.358;9.752;2023-07-31T13:24:32;0.40;;;0.40;;
16612;SDS011;8419;52.358;9.752;2023-07-31T13:27:17;0.60;;;0.50;;
16612;SDS011;8419;52.358;9.752;2023-07-31T13:30:07;0.80;;;0.60;;
16612;SDS011;8419;52.358;9.752;2023-07-31T13:32:53;1.98;;;0.75;;
16612;SDS011;8419;52.358;9.752;2023-07-31T13:35:39;0.70;;;0.68;;
16612;SDS011;8419;52.358;9.752;2023-07-31T13:38:24;0.80;;;0.62;;
16612;SDS011;8419;52.358;9.752;2023-07-31T13:41:10;0.62;;;0.60;;
16612;SDS011;8419;52.358;9.752;2023-07-31T13:43:57;0.70;;;0.65;;
16612;SDS011;8419;52.358;9.752;2023-07-31T13:46:43;0.50;;;0.50;;
16612;SDS011;8419;52.358;9.752;2023-07-31T13:49:28;0.60;;;0.60;;
16612;SDS011;8419;52.358;9.752;2023-07-31T13:52:14;0.80;;;0.60;;
16612;SDS011;8419;52.358;9.752;2023-07-31T13:55:00;2.80;;;0.70;;
16612;SDS011;8419;52.358;9.752;2023-07-31T13:57:46;0.77;;;0.70;;
16612;SDS011;8419;52.358;9.752;2023-07-31T14:00:33;1.85;;;0.70;;
16612;SDS011;8419;52.358;9.752;2023-07-31T14:03:19;0.80;;;0.60;;
16612;SDS011;8419;52.358;9.752;2023-07-31T14:06:05;0.70;;;0.60;;
16612;SDS011;8419;52.358;9.752;2023-07-31T14:08:50;0.62;;;0.50;;
16612;SDS011;8419;52.358;9.752;2023-07-31T14:11:36;1.12;;;0.50;;
16612;SDS011;8419;52.358;9.752;2023-07-31T14:14:21;0.85;;;0.50;;
16612;SDS011;8419;52.358;9.752;2023-07-31T14:17:07;0.98;;;0.60;;
16612;SDS011;8419;52.358;9.752;2023-07-31T14:19:55;0.30;;;0.30;;
16612;SDS011;8419;52.358;9.752;2023-07-31T14:22:41;1.02;;;0.90;;
16612;SDS011;8419;52.358;9.752;2023-07-31T14:25:26;0.80;;;0.60;;
16612;SDS011;8419;52.358;9.752;2023-07-31T14:28:12;1.20;;;0.60;;
16612;SDS011;8419;52.358;9.752;2023-07-31T14:30:58;0.40;;;0.40;;
16612;SDS011;8419;52.358;9.752;2023-07-31T14:33:43;0.85;;;0.70;;
16612;SDS011;8419;52.358;9.752;2023-07-31T14:36:29;0.55;;;0.55;;
16612;SDS011;8419;52.358;9.752;2023-07-31T14:39:15;0.73;;;0.73;;
16612;SDS011;8419;52.358;9.752;2023-07-31T14:42:05;0.77;;;0.57;;
16612;SDS011;8419;52.358;9.752;2023-07-31T14:44:51;0.90;;;0.80;;
16612;SDS011;8419;52.358;9.752;2023-07-31T14:47:37;1.37;;;1.20;;
16612;SDS011;8419;52.358;9.752;2023-07-31T14:50:23;1.17;;;1.10;;
16612;SDS011;8419;52.358;9.752;2023-07-31T14:53:10;1.83;;;1.50;;
16612;SDS011;8419;52.358;9.752;2023-07-31T14:55:56;1.10;;;1.00;;
16612;SDS011;8419;52.358;9.752;2023-07-31T14:58:41;1.48;;;1.30;;
16612;SDS011;8419;52.358;9.752;2023-07-31T15:01:27;1.67;;;1.58;;
16612;SDS011;8419;52.358;9.752;2023-07-31T15:04:13;1.70;;;1.37;;
16612;SDS011;8419;52.358;9.752;2023-07-31T15:06:59;1.60;;;1.50;;
16612;SDS011;8419;52.358;9.752;2023-07-31T15:09:44;2.78;;;1.40;;
16612;SDS011;8419;52.358;9.752;2023-07-31T15:12:30;1.77;;;1.50;;
16612;SDS011;8419;52.358;9.752;2023-07-31T15:15:16;1.67;;;1.58;;
16612;SDS011;8419;52.358;9.752;2023-07-31T15:18:02;1.60;;;1.50;;
16612;SDS011;8419;52.358;9.752;2023-07-31T15:20:48;1.62;;;1.52;;
16612;SDS011;8419;52.358;9.752;2023-07-31T15:23:33;1.95;;;1.55;;
16612;SDS011;8419;52.358;9.752;2023-07-31T15:26:19;2.22;;;1.52;;
16612;SDS011;8419;52.358;9.752;2023-07-31T15:29:07;1.52;;;1.40;;
16612;SDS011;8419;52.358;9.752;2023-07-31T15:31:55;1.62;;;1.30;;
16612;SDS011;8419;52.358;9.752;2023-07-31T15:34:41;4.25;;;1.60;;
16612;SDS011;8419;52.358;9.752;2023-07-31T15:37:29;1.50;;;1.40;;
16612;SDS011;8419;52.358;9.752;2023-07-31T15:40:16;1.10;;;1.00;;
16612;SDS011;8419;52.358;9.752;2023-07-31T15:43:02;1.95;;;1.77;;
16612;SDS011;8419;52.358;9.752;2023-07-31T15:45:48;1.98;;;1.65;;
16612;SDS011;8419;52.358;9.752;2023-07-31T15:48:33;1.85;;;1.75;;
16612;SDS011;8419;52.358;9.752;2023-07-31T15:51:19;1.65;;;1.48;;
16612;SDS011;8419;52.358;9.752;2023-07-31T15:54:04;1.77;;;1.45;;
16612;SDS011;8419;52.358;9.752;2023-07-31T15:56:50;1.75;;;1.42;;
16612;SDS011;8419;52.358;9.752;2023-07-31T15:59:36;3.40;;;1.52;;
16612;SDS011;8419;52.358;9.752;2023-07-31T16:02:21;2.30;;;1.25;;
16612;SDS011;8419;52.358;9.752;2023-07-31T16:05:07;1.65;;;1.55;;
16612;SDS011;8419;52.358;9.752;2023-07-31T16:07:53;2.22;;;1.37;;
16612;SDS011;8419;52.358;9.752;2023-07-31T16:10:38;1.33;;;1.20;;
16612;SDS011;8419;52.358;9.752;2023-07-31T16:13:24;2.03;;;1.87;;
16612;SDS011;8419;52.358;9.752;2023-07-31T16:16:09;2.20;;;2.00;;
16612;SDS011;8419;52.358;9.752;2023-07-31T16:18:55;1.65;;;1.37;;
16612;SDS011;8419;52.358;9.752;2023-07-31T16:21:41;3.47;;;1.60;;
16612;SDS011;8419;52.358;9.752;2023-07-31T16:24:26;1.65;;;1.45;;
16612;SDS011;8419;52.358;9.752;2023-07-31T16:27:12;2.12;;;1.92;;
16612;SDS011;8419;52.358;9.752;2023-07-31T16:29:58;3.20;;;1.70;;
16612;SDS011;8419;52.358;9.752;2023-07-31T16:32:44;2.35;;;1.90;;
16612;SDS011;8419;52.358;9.752;2023-07-31T16:35:31;3.35;;;1.90;;
16612;SDS011;8419;52.358;9.752;2023-07-31T16:38:17;1.73;;;1.62;;
16612;SDS011;8419;52.358;9.752;2023-07-31T16:41:04;1.48;;;1.20;;
16612;SDS011;8419;52.358;9.752;2023-07-31T16:43:50;2.33;;;1.50;;
16612;SDS011;8419;52.358;9.752;2023-07-31T16:46:36;0.98;;;0.98;;
16612;SDS011;8419;52.358;9.752;2023-07-31T16:49:21;3.00;;;1.50;;
16612;SDS011;8419;52.358;9.752;2023-07-31T16:52:08;2.55;;;1.67;;
16612;SDS011;8419;52.358;9.752;2023-07-31T16:54:53;1.85;;;1.40;;
16612;SDS011;8419;52.358;9.752;2023-07-31T16:57:38;2.08;;;1.87;;